Blackwood — UGGE — position and weather

sailwx.info

Track history (hours):
 
Tides and Currents Weather Stations Pressure Air Temp Water Temp Dewpoint Dewpoint Depression Visibility Wind Speed Wind Dir Waves Ship Positions

Blackwood

Last reported at 2017-Nov-17 13:59 UTC. Time now 2017-Nov-20 00:28 UTC.
Position N 45°32' E 036°47'.

Length 138 m; draft 2.8 m.

Type: Cargo ship. MMSI: 273434860.

Date/timePositionNaut miles runAvg speedWind from/ knotsBaromVisibWave heightAir tempDewpointWater temp
2017-Nov-17 13:59N 45°32' E 036°47'3 5.7
2017-Nov-17 13:30N 45°30' E 036°44'3 5.6
2017-Nov-17 13:00N 45°27' E 036°43'3 5.7
2017-Nov-17 12:30N 45°25' E 036°41'3 5.9
2017-Nov-17 12:00N 45°22' E 036°40'3 5.8
2017-Nov-17 11:30N 45°20' E 036°36'3 6.8
2017-Nov-17 11:00N 45°19' E 036°32'3 6.3
2017-Nov-17 10:30N 45°17' E 036°29'3 5.3
2017-Nov-17 10:00N 45°14' E 036°29'2 3.3
2017-Nov-17 09:30N 45°13' E 036°29'2 2.3
2017-Nov-17 08:49N 45°11' E 036°31'0 0.0
2017-Nov-17 08:14N 45°11' E 036°31'0 0.0
2017-Nov-17 07:59N 45°11' E 036°31'0 0.0
2017-Nov-17 06:09N 45°11' E 036°31'0 0.0
2017-Nov-16 13:32N 45°11' E 036°31'0 0.0
2017-Nov-16 12:25N 45°11' E 036°31'  
Track history (hours):
 
Tides and Currents Weather Stations Pressure Air Temp Water Temp Dewpoint Dewpoint Depression Visibility Wind Speed Wind Dir Waves Ship Positions

Blackwood

Last reported at 2017-Nov-17 13:59 UTC. Time now 2017-Nov-20 00:28 UTC.
Position N 45°32' E 036°47'.

Length 138 m; draft 2.8 m.

Type: Cargo ship. MMSI: 273434860.

Date/timePositionNaut miles runAvg speedWind from/ knotsBaromVisibWave heightAir tempDewpointWater temp
2017-Nov-17 13:59N 45°32' E 036°47'3 5.7
2017-Nov-17 13:30N 45°30' E 036°44'3 5.6
2017-Nov-17 13:00N 45°27' E 036°43'3 5.7
2017-Nov-17 12:30N 45°25' E 036°41'3 5.9
2017-Nov-17 12:00N 45°22' E 036°40'3 5.8
2017-Nov-17 11:30N 45°20' E 036°36'3 6.8
2017-Nov-17 11:00N 45°19' E 036°32'3 6.3
2017-Nov-17 10:30N 45°17' E 036°29'3 5.3
2017-Nov-17 10:00N 45°14' E 036°29'2 3.3
2017-Nov-17 09:30N 45°13' E 036°29'2 2.3
2017-Nov-17 08:49N 45°11' E 036°31'0 0.0
2017-Nov-17 08:14N 45°11' E 036°31'0 0.0
2017-Nov-17 07:59N 45°11' E 036°31'0 0.0
2017-Nov-17 06:09N 45°11' E 036°31'0 0.0
2017-Nov-16 13:32N 45°11' E 036°31'0 0.0
2017-Nov-16 12:25N 45°11' E 036°31'  

Dump ship's entire track history